Terminal Aerodrome Forecast
Issued by NWS Upton, NY

Home | Current Version | Previous Version | Text Only | Print | Product List | Glossary On
Versions: 1 2 3 4 5 6 7 8 9 10 11 12 13 14 15 16 17 18 19 20 21 22 23 24 25 26 27 28 29 30 31 32
989
FTUS41 KOKX 051334 AAA
TAFBDR
TAF AMD
KBDR 051334Z 0514/0612 02014G19KT P6SM OVC015
     FM051700 01017G24KT P6SM SCT015 OVC025
      TEMPO 0521/0524 -RA BKN015
     FM060000 03010KT P6SM -RA SCT007 OVC012
     FM060600 04008KT 5SM -RA BR BKN007 OVC010=

USA.gov is the U.S. government's official web portal to all federal, state and local government web resources and services.